Time;durP1;ratioP1;P1;durP2;ratioP2;P2;SDS_P1;SDS_P2;PMS_P1;PMS_P2;Temp;Humidity;BMP_temperature;BMP_pressure;BME280_temperature;BME280_humidity;BME280_pressure;Samples;Min_cycle;Max_cycle;Signal;HPM_P1;HPM_P2
2021/07/31 00:01:44;;;;;;;4.00;2.03;;;21.00;59.30;;;;;;4916893;29;21024;-50
2021/07/31 00:04:11;;;;;;;3.80;1.97;;;20.90;59.40;;;;;;4933133;29;20460;-50
2021/07/31 00:06:38;;;;;;;3.33;1.87;;;20.90;59.60;;;;;;4932956;29;20550;-50
2021/07/31 00:09:05;;;;;;;4.27;1.77;;;20.90;59.80;;;;;;4931957;29;20547;-50
2021/07/31 00:11:32;;;;;;;6.67;1.50;;;20.80;60.10;;;;;;4930377;29;20556;-50
2021/07/31 00:13:59;;;;;;;2.10;1.47;;;20.80;60.20;;;;;;4930734;29;20468;-50
2021/07/31 00:16:26;;;;;;;3.73;1.63;;;20.80;60.30;;;;;;4921565;29;20552;-50
2021/07/31 00:18:53;;;;;;;6.53;2.13;;;20.70;60.50;;;;;;4925493;29;20492;-50
2021/07/31 00:21:21;;;;;;;2.10;1.90;;;20.70;60.80;;;;;;4913213;29;20468;-50
2021/07/31 00:23:48;;;;;;;4.57;2.10;;;20.70;61.10;;;;;;4928873;29;20486;-50
2021/07/31 00:26:15;;;;;;;3.43;2.20;;;20.70;61.30;;;;;;4929342;29;20459;-50
2021/07/31 00:28:41;;;;;;;3.60;2.27;;;20.60;61.60;;;;;;4917691;29;20459;-50
2021/07/31 00:31:08;;;;;;;6.00;2.00;;;20.60;61.70;;;;;;4926418;29;20491;-50
2021/07/31 00:33:35;;;;;;;5.43;1.43;;;20.70;61.80;;;;;;4914274;29;20837;-50
2021/07/31 00:36:02;;;;;;;3.60;1.63;;;20.70;61.50;;;;;;4929770;29;20581;-50
2021/07/31 00:38:29;;;;;;;3.30;2.03;;;20.70;61.50;;;;;;4930241;29;20968;-50
2021/07/31 00:40:56;;;;;;;1.67;1.37;;;20.60;61.60;;;;;;4928983;29;20574;-50
2021/07/31 00:43:22;;;;;;;3.50;1.70;;;20.70;61.10;;;;;;4927467;29;20503;-50
2021/07/31 00:45:49;;;;;;;1.70;1.60;;;20.60;61.30;;;;;;4930447;29;20476;-50
2021/07/31 00:48:16;;;;;;;4.73;1.60;;;20.60;61.60;;;;;;4927524;29;21265;-50
2021/07/31 00:50:43;;;;;;;4.80;1.80;;;20.60;61.80;;;;;;4923549;29;20996;-50
2021/07/31 00:53:10;;;;;;;2.80;1.60;;;20.60;61.40;;;;;;4926848;29;20804;-50
2021/07/31 00:55:37;;;;;;;2.33;1.53;;;20.50;62.20;;;;;;4927963;29;20527;-50
2021/07/31 00:58:05;;;;;;;3.77;1.57;;;20.50;61.90;;;;;;4909597;29;20471;-50
2021/07/31 01:00:32;;;;;;;3.80;1.90;;;20.50;61.60;;;;;;4928167;29;20499;-50
2021/07/31 01:02:59;;;;;;;2.90;1.60;;;20.50;61.60;;;;;;4931210;29;20475;-50
2021/07/31 01:05:26;;;;;;;4.17;2.20;;;20.50;61.90;;;;;;4930576;29;20467;-50
2021/07/31 01:07:53;;;;;;;5.03;1.90;;;20.40;61.90;;;;;;4930058;29;20551;-50
2021/07/31 01:10:20;;;;;;;5.50;2.00;;;20.40;61.80;;;;;;4913884;29;20595;-50
2021/07/31 01:12:48;;;;;;;5.10;1.73;;;20.40;61.90;;;;;;4927856;29;20840;-50
2021/07/31 01:15:15;;;;;;;2.90;1.63;;;20.30;61.80;;;;;;4923870;29;20474;-50
2021/07/31 01:17:43;;;;;;;9.20;2.30;;;20.30;62.00;;;;;;4912264;29;20556;-50
2021/07/31 01:20:11;;;;;;;2.37;2.13;;;20.30;62.10;;;;;;4928163;29;20460;-51
2021/07/31 01:22:37;;;;;;;3.23;1.33;;;20.30;61.90;;;;;;4912056;29;20969;-50
2021/07/31 01:25:05;;;;;;;3.07;1.43;;;20.30;61.70;;;;;;4927028;29;20520;-50
2021/07/31 01:27:32;;;;;;;6.53;2.97;;;20.20;61.90;;;;;;4914187;29;20949;-50
2021/07/31 01:29:59;;;;;;;1.67;1.40;;;20.20;62.00;;;;;;4929373;29;20506;-50
2021/07/31 01:32:26;;;;;;;2.40;1.40;;;20.20;61.80;;;;;;4930825;29;20983;-50
2021/07/31 01:34:52;;;;;;;3.60;1.50;;;20.20;61.70;;;;;;4930055;29;20503;-50
2021/07/31 01:37:19;;;;;;;4.20;1.50;;;20.10;61.50;;;;;;4931945;29;20460;-50
2021/07/31 01:39:47;;;;;;;3.90;1.53;;;20.10;61.30;;;;;;4930077;29;20495;-50
2021/07/31 01:42:14;;;;;;;2.33;1.33;;;20.10;61.50;;;;;;4929540;29;20883;-50
2021/07/31 01:44:41;;;;;;;1.60;1.47;;;20.10;61.50;;;;;;4932046;29;20993;-50
2021/07/31 01:47:08;;;;;;;2.40;1.23;;;20.10;61.60;;;;;;4931009;29;20531;-50
2021/07/31 01:49:35;;;;;;;4.30;2.43;;;20.10;61.60;;;;;;4917480;29;20472;-50
2021/07/31 01:52:02;;;;;;;1.80;1.53;;;20.00;61.90;;;;;;4929764;29;21200;-50
2021/07/31 01:54:29;;;;;;;4.10;1.77;;;20.00;62.00;;;;;;4933116;29;20486;-50
2021/07/31 01:56:55;;;;;;;3.13;1.40;;;20.00;61.80;;;;;;4932365;29;20563;-50
2021/07/31 01:59:22;;;;;;;2.60;2.07;;;20.00;61.70;;;;;;4933256;29;20463;-50
2021/07/31 02:01:49;;;;;;;3.40;2.10;;;20.00;61.70;;;;;;4916846;29;20479;-50
2021/07/31 02:04:16;;;;;;;5.30;1.73;;;19.90;61.90;;;;;;4934079;29;20468;-50
2021/07/31 02:06:42;;;;;;;2.50;1.60;;;19.90;62.00;;;;;;4933501;29;20563;-50
2021/07/31 02:09:09;;;;;;;2.30;1.57;;;19.80;61.80;;;;;;4933174;29;20510;-50
2021/07/31 02:11:36;;;;;;;3.80;1.70;;;19.70;62.40;;;;;;4935052;29;20578;-50
2021/07/31 02:14:03;;;;;;;8.40;2.60;;;19.60;62.50;;;;;;4931831;29;20551;-50
2021/07/31 02:16:30;;;;;;;5.53;2.27;;;19.60;62.80;;;;;;4932636;29;20467;-50
2021/07/31 02:18:56;;;;;;;3.90;2.10;;;19.60;63.10;;;;;;4915013;29;20496;-50
2021/07/31 02:21:23;;;;;;;2.80;2.03;;;19.50;63.20;;;;;;4930503;29;20523;-50
2021/07/31 02:23:50;;;;;;;5.93;2.20;;;19.50;63.00;;;;;;4932940;29;20490;-50
2021/07/31 02:26:18;;;;;;;4.97;1.90;;;19.50;63.20;;;;;;4934105;29;20491;-50
2021/07/31 02:28:44;;;;;;;2.90;1.73;;;19.40;63.20;;;;;;4930784;29;21067;-50
2021/07/31 02:31:11;;;;;;;3.20;2.47;;;19.40;63.20;;;;;;4932085;29;20838;-50
2021/07/31 02:33:40;;;;;;;7.40;2.57;;;19.40;63.30;;;;;;4935351;29;20529;-50
2021/07/31 02:36:07;;;;;;;5.63;1.77;;;19.40;63.50;;;;;;4928550;29;20470;-47
2021/07/31 02:38:34;;;;;;;2.50;1.53;;;19.30;63.50;;;;;;4932827;29;20920;-47
2021/07/31 02:41:01;;;;;;;1.97;1.33;;;19.30;63.60;;;;;;4930634;29;20809;-47
2021/07/31 02:43:28;;;;;;;5.40;2.17;;;19.30;63.40;;;;;;4917042;29;20476;-47
2021/07/31 02:45:55;;;;;;;3.30;1.70;;;19.30;63.50;;;;;;4929872;29;20460;-47
2021/07/31 02:48:22;;;;;;;3.97;1.50;;;19.30;63.60;;;;;;4931166;29;20440;-47
2021/07/31 02:50:49;;;;;;;3.73;1.57;;;19.30;63.70;;;;;;4931743;29;20498;-47
2021/07/31 02:53:15;;;;;;;2.60;1.37;;;19.20;63.80;;;;;;4916454;29;20482;-47
2021/07/31 02:55:46;;;;;;;2.70;1.83;;;19.20;64.10;;;;;;4916455;29;20555;-47
2021/07/31 02:58:13;;;;;;;3.77;1.70;;;19.20;64.20;;;;;;4929941;29;21044;-47
2021/07/31 03:00:40;;;;;;;3.07;1.80;;;19.20;64.20;;;;;;4915173;29;20506;-47
2021/07/31 03:03:07;;;;;;;4.57;2.40;;;19.20;64.20;;;;;;4929668;29;20590;-47
2021/07/31 03:05:34;;;;;;;2.00;1.23;;;19.30;64.30;;;;;;4929073;29;20459;-47
2021/07/31 03:08:01;;;;;;;3.27;1.80;;;19.20;64.20;;;;;;4931554;29;20467;-47
2021/07/31 03:10:28;;;;;;;3.77;2.00;;;19.20;64.50;;;;;;4929886;29;20856;-47
2021/07/31 03:12:54;;;;;;;5.97;1.83;;;19.20;64.40;;;;;;4929230;29;20476;-47
2021/07/31 03:15:21;;;;;;;5.37;1.70;;;19.20;64.40;;;;;;4931983;29;20467;-47
2021/07/31 03:17:48;;;;;;;2.30;1.50;;;19.10;64.50;;;;;;4931432;29;21056;-47
2021/07/31 03:20:15;;;;;;;2.10;1.80;;;19.10;64.50;;;;;;4933647;29;20468;-47
2021/07/31 03:22:41;;;;;;;3.00;1.90;;;19.10;64.50;;;;;;4924804;29;20477;-47
2021/07/31 03:25:09;;;;;;;6.63;1.70;;;19.10;64.50;;;;;;4911961;29;20475;-47
2021/07/31 03:27:35;;;;;;;2.90;1.73;;;19.10;64.60;;;;;;4932456;29;20583;-47
2021/07/31 03:30:03;;;;;;;2.50;1.87;;;19.00;64.70;;;;;;4931543;29;20460;-47
2021/07/31 03:32:30;;;;;;;5.27;1.73;;;19.00;64.70;;;;;;4929511;29;20473;-47
2021/07/31 03:34:57;;;;;;;9.13;2.03;;;19.00;64.80;;;;;;4930257;29;20864;-47
2021/07/31 03:37:23;;;;;;;5.90;2.10;;;19.00;64.80;;;;;;4926040;29;20832;-47
2021/07/31 03:39:50;;;;;;;2.90;1.80;;;18.90;64.80;;;;;;4930807;29;21000;-47
2021/07/31 03:42:17;;;;;;;4.53;1.97;;;18.90;64.80;;;;;;4933570;29;20561;-47
2021/07/31 03:44:44;;;;;;;4.13;1.67;;;19.00;65.00;;;;;;4930436;29;20556;-47
2021/07/31 03:47:10;;;;;;;3.80;1.53;;;18.90;65.00;;;;;;4929557;29;20463;-47
2021/07/31 03:49:37;;;;;;;4.23;2.00;;;18.90;65.00;;;;;;4929216;29;20476;-47
2021/07/31 03:52:04;;;;;;;4.03;1.77;;;18.90;64.70;;;;;;4927009;29;20499;-47
2021/07/31 03:54:32;;;;;;;2.90;1.83;;;19.00;64.40;;;;;;4929748;29;20462;-47
2021/07/31 03:56:59;;;;;;;3.60;1.73;;;18.90;64.10;;;;;;4928627;29;20810;-47
2021/07/31 03:59:25;;;;;;;3.53;1.70;;;18.90;64.40;;;;;;4911682;29;20470;-47
2021/07/31 04:01:54;;;;;;;4.17;1.97;;;18.90;64.30;;;;;;4928909;29;20510;-47
2021/07/31 04:04:24;;;;;;;3.27;1.80;;;18.90;64.30;;;;;;4929206;29;20456;-47
2021/07/31 04:06:50;;;;;;;3.80;1.87;;;18.80;64.40;;;;;;4927291;29;20466;-47
2021/07/31 04:09:17;;;;;;;2.17;1.57;;;18.80;64.30;;;;;;4928561;29;20471;-47
2021/07/31 04:11:44;;;;;;;7.67;2.00;;;18.80;64.40;;;;;;4931764;29;20499;-47
2021/07/31 04:14:13;;;;;;;3.00;1.80;;;18.80;64.40;;;;;;4929539;29;20460;-47
2021/07/31 04:16:40;;;;;;;4.00;1.83;;;18.80;64.60;;;;;;4930467;29;20467;-47
2021/07/31 04:19:06;;;;;;;6.00;1.87;;;18.70;64.80;;;;;;4914788;29;20538;-47
2021/07/31 04:21:33;;;;;;;3.30;1.90;;;18.70;64.90;;;;;;4928326;29;20472;-47
2021/07/31 04:24:00;;;;;;;5.30;2.03;;;18.60;64.90;;;;;;4930383;29;20563;-46
2021/07/31 04:26:26;;;;;;;4.60;1.83;;;18.60;64.90;;;;;;4927143;29;20467;-47
2021/07/31 04:28:53;;;;;;;3.17;1.50;;;18.60;64.90;;;;;;4917959;29;20476;-47
2021/07/31 04:31:20;;;;;;;9.20;2.27;;;18.60;65.00;;;;;;4927927;29;20513;-47
2021/07/31 04:33:47;;;;;;;10.50;2.33;;;18.60;65.10;;;;;;4928645;29;20468;-47
2021/07/31 04:36:13;;;;;;;3.80;2.40;;;18.60;65.30;;;;;;4929576;29;20837;-47
2021/07/31 04:38:40;;;;;;;2.47;1.90;;;18.60;65.20;;;;;;4929313;29;21008;-47
2021/07/31 04:41:07;;;;;;;4.47;1.93;;;18.60;65.30;;;;;;4928963;29;20466;-47
2021/07/31 04:43:34;;;;;;;2.83;1.63;;;18.60;65.50;;;;;;4929516;29;20468;-46
2021/07/31 04:46:01;;;;;;;3.93;2.00;;;18.50;65.60;;;;;;4929265;29;20468;-47
2021/07/31 04:48:29;;;;;;;2.67;1.80;;;18.50;65.50;;;;;;4927017;29;20523;-46
2021/07/31 04:51:01;;;;;;;5.90;2.00;;;18.50;65.50;;;;;;4929698;29;20535;-46
2021/07/31 04:53:28;;;;;;;2.60;1.67;;;18.60;65.60;;;;;;4924996;29;20543;-47
2021/07/31 04:55:55;;;;;;;6.50;2.17;;;18.60;65.30;;;;;;4929668;29;20921;-47
2021/07/31 04:58:22;;;;;;;3.40;1.77;;;18.60;65.50;;;;;;4927729;29;20452;-47
2021/07/31 05:00:50;;;;;;;5.03;2.23;;;18.60;65.60;;;;;;4928507;29;21243;-47
2021/07/31 05:03:18;;;;;;;2.20;1.63;;;18.50;65.60;;;;;;4929233;29;20457;-47
2021/07/31 05:05:45;;;;;;;4.40;1.97;;;18.50;65.90;;;;;;4930156;29;20464;-47
2021/07/31 05:08:13;;;;;;;3.33;2.03;;;18.50;65.80;;;;;;4928827;29;21006;-47
2021/07/31 05:10:41;;;;;;;2.07;1.87;;;18.50;66.20;;;;;;4931626;29;20480;-47
2021/07/31 05:13:08;;;;;;;2.83;1.80;;;18.60;65.90;;;;;;4927099;29;21156;-47
2021/07/31 05:15:37;;;;;;;3.43;1.87;;;18.50;66.00;;;;;;4930376;29;20523;-47
2021/07/31 05:18:05;;;;;;;3.67;2.13;;;18.50;65.90;;;;;;4929920;29;20491;-48
2021/07/31 05:20:33;;;;;;;3.30;1.90;;;18.50;65.90;;;;;;4932181;29;20499;-46
2021/07/31 05:23:00;;;;;;;4.20;1.93;;;18.50;66.30;;;;;;4932525;29;21124;-47
2021/07/31 05:25:27;;;;;;;3.10;1.60;;;18.60;66.00;;;;;;4934975;29;20460;-47
2021/07/31 05:27:55;;;;;;;5.00;1.63;;;18.60;66.20;;;;;;4933974;29;20464;-47
2021/07/31 05:30:22;;;;;;;9.47;2.60;;;18.60;66.10;;;;;;4930887;29;20470;-46
2021/07/31 05:32:49;;;;;;;12.03;1.70;;;18.60;66.10;;;;;;4930986;29;20507;-47
2021/07/31 05:35:16;;;;;;;6.27;2.30;;;18.60;65.90;;;;;;4931265;29;20546;-46
2021/07/31 05:37:43;;;;;;;7.40;1.80;;;18.60;66.00;;;;;;4933084;29;20459;-47
2021/07/31 05:40:11;;;;;;;12.47;2.40;;;18.60;66.20;;;;;;4931609;29;20559;-47
2021/07/31 05:42:40;;;;;;;3.80;1.70;;;18.60;66.30;;;;;;4917027;29;20468;-47
2021/07/31 05:45:07;;;;;;;3.10;1.60;;;18.60;66.00;;;;;;4933266;29;20977;-47
2021/07/31 05:47:34;;;;;;;4.97;2.43;;;18.60;65.80;;;;;;4914483;29;20464;-47
2021/07/31 05:50:05;;;;;;;3.30;2.47;;;18.60;66.00;;;;;;4915871;29;20456;-47
2021/07/31 05:52:36;;;;;;;4.90;1.60;;;18.50;66.00;;;;;;4931531;29;20822;-47
2021/07/31 05:55:05;;;;;;;3.13;1.60;;;18.60;65.80;;;;;;4931862;29;20470;-47
2021/07/31 05:57:32;;;;;;;3.70;1.80;;;18.60;65.80;;;;;;4931975;29;21071;-47
2021/07/31 06:00:00;;;;;;;3.67;2.17;;;18.60;66.20;;;;;;4928763;29;20480;-47
2021/07/31 06:02:27;;;;;;;2.00;1.70;;;18.50;66.40;;;;;;4931905;29;20535;-47
2021/07/31 06:04:56;;;;;;;2.93;2.00;;;18.60;66.50;;;;;;4934634;29;21205;-46
2021/07/31 06:07:23;;;;;;;4.00;1.80;;;18.60;66.10;;;;;;4934636;29;20460;-47
2021/07/31 06:09:53;;;;;;;3.03;2.00;;;18.60;66.30;;;;;;4930458;29;21047;-47
2021/07/31 06:12:21;;;;;;;5.97;2.20;;;18.60;66.00;;;;;;4931309;29;20900;-47
2021/07/31 06:14:48;;;;;;;3.37;1.93;;;18.60;66.10;;;;;;4932700;29;20466;-47
2021/07/31 06:17:15;;;;;;;2.90;2.40;;;18.60;66.90;;;;;;4930732;29;20456;-47
2021/07/31 06:19:42;;;;;;;8.83;2.13;;;18.60;66.70;;;;;;4931181;29;20460;-47
2021/07/31 06:22:09;;;;;;;4.40;2.37;;;18.70;66.30;;;;;;4933284;29;20555;-46
2021/07/31 06:24:36;;;;;;;8.63;2.93;;;18.70;66.30;;;;;;4927719;29;20472;-47
2021/07/31 06:27:04;;;;;;;2.40;2.20;;;18.70;66.10;;;;;;4932527;29;20478;-47
2021/07/31 06:29:31;;;;;;;3.20;1.90;;;18.80;66.00;;;;;;4914155;29;20470;-47
2021/07/31 06:31:58;;;;;;;4.73;1.77;;;18.80;66.00;;;;;;4931120;29;20487;-47
2021/07/31 06:34:26;;;;;;;4.67;2.20;;;18.80;66.10;;;;;;4928850;29;20527;-47
2021/07/31 06:36:53;;;;;;;2.50;2.30;;;18.90;65.70;;;;;;4932491;29;20468;-47
2021/07/31 06:39:20;;;;;;;5.87;2.03;;;18.90;65.20;;;;;;4932772;29;20538;-47
2021/07/31 06:41:47;;;;;;;5.07;2.17;;;19.00;64.70;;;;;;4931376;29;20464;-47
2021/07/31 06:44:13;;;;;;;2.17;1.97;;;19.00;64.60;;;;;;4932807;29;20674;-47
2021/07/31 06:46:40;;;;;;;4.37;1.87;;;19.10;64.30;;;;;;4931035;29;20471;-47
2021/07/31 06:49:07;;;;;;;4.10;2.20;;;19.10;64.40;;;;;;4914502;29;20961;-47
2021/07/31 06:51:33;;;;;;;5.33;2.20;;;19.20;64.80;;;;;;4915771;29;20480;-47
2021/07/31 06:54:03;;;;;;;2.00;1.70;;;19.30;64.40;;;;;;4930989;29;20464;-47
2021/07/31 06:56:36;;;;;;;4.27;2.23;;;19.40;64.30;;;;;;4931116;29;20469;-47
2021/07/31 06:59:03;;;;;;;3.90;2.07;;;19.50;63.10;;;;;;4916797;29;20833;-47
2021/07/31 07:01:30;;;;;;;2.03;1.50;;;19.50;63.10;;;;;;4931221;29;20563;-47
2021/07/31 07:03:58;;;;;;;2.70;2.17;;;19.60;63.10;;;;;;4919627;29;20491;-47
2021/07/31 07:06:25;;;;;;;10.03;2.03;;;19.70;62.80;;;;;;4921232;29;21665;-47
2021/07/31 07:08:51;;;;;;;4.27;2.00;;;19.80;62.50;;;;;;4939964;29;20755;-47
2021/07/31 07:11:18;;;;;;;3.33;2.10;;;19.80;62.70;;;;;;4942702;29;20925;-47
2021/07/31 07:13:46;;;;;;;4.10;2.20;;;19.90;62.20;;;;;;4939156;29;20483;-46
2021/07/31 07:16:13;;;;;;;3.43;2.20;;;20.00;61.90;;;;;;4942636;29;20478;-47
2021/07/31 07:18:40;;;;;;;2.10;1.70;;;20.10;61.40;;;;;;4938133;29;20455;-47
2021/07/31 07:21:10;;;;;;;3.33;2.03;;;20.20;61.60;;;;;;4938926;29;20448;-47
2021/07/31 07:23:37;;;;;;;4.13;1.93;;;20.30;61.60;;;;;;4940245;29;20999;-46
2021/07/31 07:26:10;;;;;;;5.13;2.17;;;20.40;61.40;;;;;;4922710;29;20452;-46
2021/07/31 07:28:38;;;;;;;3.87;2.03;;;20.50;61.30;;;;;;4936876;29;20493;-48
2021/07/31 07:31:05;;;;;;;3.67;2.23;;;20.60;60.80;;;;;;4920887;29;20442;-47
2021/07/31 07:33:33;;;;;;;3.90;1.70;;;20.70;60.30;;;;;;4936345;29;20519;-47
2021/07/31 07:36:00;;;;;;;4.43;2.00;;;20.80;60.20;;;;;;4939569;29;21016;-48
2021/07/31 07:38:28;;;;;;;4.47;1.83;;;20.90;59.30;;;;;;4932087;29;20483;-47
2021/07/31 07:40:54;;;;;;;10.53;2.43;;;21.00;59.30;;;;;;4935606;29;20464;-47
2021/07/31 07:43:21;;;;;;;2.50;1.80;;;21.10;60.00;;;;;;4923480;29;20472;-46
2021/07/31 07:45:48;;;;;;;4.10;2.13;;;21.20;59.40;;;;;;4935443;29;20467;-47
2021/07/31 07:48:15;;;;;;;1.90;1.63;;;21.30;60.00;;;;;;4936041;29;20475;-46
2021/07/31 07:50:42;;;;;;;4.63;2.00;;;21.50;59.40;;;;;;4936566;29;20463;-46
2021/07/31 07:53:08;;;;;;;3.87;2.60;;;21.70;59.40;;;;;;4931898;29;20516;-46
2021/07/31 07:55:35;;;;;;;4.17;1.53;;;21.90;58.30;;;;;;4935432;29;20828;-47
2021/07/31 07:58:06;;;;;;;5.53;1.97;;;22.00;57.60;;;;;;4920780;29;20456;-46
2021/07/31 08:00:33;;;;;;;1.93;1.80;;;22.00;57.50;;;;;;4936806;29;20550;-46
2021/07/31 08:03:02;;;;;;;3.83;2.17;;;22.10;57.00;;;;;;4919729;29;20937;-46
2021/07/31 08:05:29;;;;;;;3.13;1.57;;;22.20;56.60;;;;;;4934356;29;20526;-47
2021/07/31 08:07:56;;;;;;;3.83;1.77;;;22.20;56.10;;;;;;4933231;29;20993;-48
2021/07/31 08:10:24;;;;;;;2.03;1.60;;;22.30;56.50;;;;;;4932590;29;20506;-47
2021/07/31 08:12:51;;;;;;;4.50;1.90;;;22.40;56.80;;;;;;4932131;29;20487;-47
2021/07/31 08:15:17;;;;;;;2.40;1.90;;;22.50;56.20;;;;;;4916652;29;21067;-45
2021/07/31 08:17:44;;;;;;;4.33;1.93;;;22.60;56.30;;;;;;4931539;29;20813;-47
2021/07/31 08:20:13;;;;;;;3.63;1.70;;;22.60;55.70;;;;;;4933161;29;20451;-47
2021/07/31 08:22:40;;;;;;;2.90;1.80;;;22.70;55.50;;;;;;4933137;29;20468;-47
2021/07/31 08:25:08;;;;;;;3.13;1.80;;;22.70;55.40;;;;;;4932594;29;20487;-47
2021/07/31 08:27:35;;;;;;;4.00;1.90;;;22.80;55.00;;;;;;4933259;29;20458;-47
2021/07/31 08:30:04;;;;;;;2.67;2.00;;;22.80;54.30;;;;;;4914367;29;21242;-47
2021/07/31 08:32:31;;;;;;;3.73;2.00;;;22.80;53.80;;;;;;4933547;29;20820;-47
2021/07/31 08:34:59;;;;;;;4.40;2.00;;;22.70;54.10;;;;;;4935541;29;20452;-47
2021/07/31 08:37:29;;;;;;;2.40;1.63;;;22.70;54.40;;;;;;4935688;29;20925;-47
2021/07/31 08:39:56;;;;;;;2.73;2.13;;;22.70;53.80;;;;;;4933632;29;20462;-47
2021/07/31 08:42:23;;;;;;;2.90;1.87;;;22.70;53.90;;;;;;4934870;29;20454;-47
2021/07/31 08:44:51;;;;;;;3.77;2.00;;;22.80;54.10;;;;;;4932612;29;20463;-47
2021/07/31 08:47:18;;;;;;;2.00;1.80;;;22.80;54.00;;;;;;4935296;29;20456;-47
2021/07/31 08:49:47;;;;;;;3.30;1.43;;;22.90;54.10;;;;;;4932195;29;20466;-47
2021/07/31 08:52:15;;;;;;;2.63;1.73;;;23.10;53.50;;;;;;4915161;29;20518;-47
2021/07/31 08:54:42;;;;;;;2.20;2.00;;;23.30;53.10;;;;;;4931835;29;20456;-47
2021/07/31 08:57:11;;;;;;;2.93;1.67;;;23.50;52.40;;;;;;4932622;29;20490;-47
2021/07/31 08:59:37;;;;;;;2.63;1.80;;;23.70;52.00;;;;;;4930009;29;20459;-47
2021/07/31 09:02:04;;;;;;;2.63;1.90;;;23.90;51.70;;;;;;4932493;29;20542;-48
2021/07/31 09:04:31;;;;;;;3.00;1.40;;;23.90;50.80;;;;;;4931939;29;20928;-48
2021/07/31 09:06:58;;;;;;;3.10;1.73;;;24.00;50.30;;;;;;4929574;29;20458;-47
2021/07/31 09:09:27;;;;;;;6.40;2.07;;;24.00;50.20;;;;;;4930801;29;20468;-47
2021/07/31 09:12:05;;;;;;;1.87;1.73;;;24.10;49.30;;;;;;4933145;29;20917;-48
2021/07/31 09:14:34;;;;;;;4.63;1.67;;;24.30;49.60;;;;;;4933604;29;20656;-48
2021/07/31 09:17:02;;;;;;;2.20;1.30;;;24.50;49.60;;;;;;4930978;29;20459;-47
2021/07/31 09:19:29;;;;;;;3.17;2.00;;;24.60;48.70;;;;;;4931350;29;20534;-48
2021/07/31 09:22:07;;;;;;;2.73;1.30;;;24.80;47.70;;;;;;4927579;29;20467;-48
2021/07/31 09:24:35;;;;;;;2.10;1.50;;;25.00;47.80;;;;;;4932603;29;20847;-48
2021/07/31 09:27:02;;;;;;;3.20;1.60;;;25.30;47.30;;;;;;4931504;29;20467;-48
2021/07/31 09:29:35;;;;;;;1.60;1.50;;;25.50;46.20;;;;;;4930849;29;21137;-47
2021/07/31 09:32:04;;;;;;;2.60;1.60;;;25.70;46.30;;;;;;4930181;29;20483;-48
2021/07/31 09:34:44;;;;;;;1.63;1.20;;;25.80;46.10;;;;;;4929445;29;20483;-48
2021/07/31 09:37:12;;;;;;;2.07;1.80;;;26.00;45.60;;;;;;4932266;29;20451;-48
2021/07/31 09:39:56;;;;;;;1.70;1.30;;;26.30;45.30;;;;;;4917601;29;20475;-48
2021/07/31 09:42:34;;;;;;;2.20;1.70;;;26.60;45.00;;;;;;4934234;29;20562;-48
2021/07/31 09:45:05;;;;;;;2.40;1.63;;;27.00;44.50;;;;;;4932226;29;20454;-48
2021/07/31 09:47:33;;;;;;;2.83;1.80;;;27.20;44.60;;;;;;4931615;29;20855;-48
2021/07/31 09:50:01;;;;;;;2.67;1.30;;;27.20;43.80;;;;;;4935055;29;20537;-48
2021/07/31 09:52:28;;;;;;;2.07;1.17;;;27.30;44.20;;;;;;4917622;29;20587;-48
2021/07/31 09:54:58;;;;;;;2.20;2.00;;;27.40;43.30;;;;;;4902929;29;20453;-48
2021/07/31 09:57:30;;;;;;;1.70;1.33;;;27.20;44.00;;;;;;4926926;29;20450;-48
2021/07/31 10:00:03;;;;;;;3.47;1.97;;;27.20;44.10;;;;;;4914736;29;20848;-48
2021/07/31 10:02:31;;;;;;;3.30;1.77;;;27.20;44.30;;;;;;4930191;29;20839;-48
2021/07/31 10:04:58;;;;;;;1.70;1.57;;;27.10;44.80;;;;;;4930497;29;20447;-48
2021/07/31 10:07:26;;;;;;;2.33;1.47;;;26.80;44.40;;;;;;4936237;29;20522;-48
2021/07/31 10:09:53;;;;;;;2.70;1.67;;;26.80;44.50;;;;;;4936278;29;20550;-48
2021/07/31 10:12:30;;;;;;;2.37;1.70;;;26.80;44.70;;;;;;4934575;29;20518;-48
2021/07/31 10:14:57;;;;;;;2.77;1.63;;;26.60;45.10;;;;;;4937083;29;20485;-48
2021/07/31 10:17:29;;;;;;;1.80;1.60;;;26.70;45.10;;;;;;4933084;29;20535;-47
2021/07/31 10:19:58;;;;;;;1.63;1.50;;;26.80;45.30;;;;;;4933345;29;20876;-47
2021/07/31 10:22:42;;;;;;;2.17;1.63;;;26.80;44.50;;;;;;4935056;29;20504;-47
2021/07/31 10:25:10;;;;;;;2.43;1.90;;;27.00;44.60;;;;;;4930456;29;20828;-48
2021/07/31 10:27:37;;;;;;;4.60;1.80;;;26.90;44.30;;;;;;4934189;29;20502;-48
2021/07/31 10:30:23;;;;;;;3.60;1.40;;;26.60;44.60;;;;;;4933924;29;20542;-48
2021/07/31 10:32:50;;;;;;;2.40;1.60;;;26.30;45.30;;;;;;4916276;29;20591;-48
2021/07/31 10:35:40;;;;;;;1.90;1.53;;;26.00;46.20;;;;;;4936954;29;20439;-48
2021/07/31 10:38:09;;;;;;;4.20;1.47;;;25.70;46.80;;;;;;4906897;29;20528;-47
2021/07/31 10:40:38;;;;;;;2.07;1.33;;;25.50;46.90;;;;;;4935419;29;20454;-47
2021/07/31 10:43:07;;;;;;;1.83;1.73;;;25.30;46.90;;;;;;4932038;29;20458;-47
2021/07/31 10:45:35;;;;;;;5.47;1.90;;;25.10;47.00;;;;;;4917227;29;21025;-48
2021/07/31 10:48:04;;;;;;;3.20;1.80;;;25.00;47.70;;;;;;4936521;29;20510;-48
2021/07/31 10:50:31;;;;;;;2.90;2.03;;;24.80;48.00;;;;;;4935481;29;20448;-48
2021/07/31 10:53:11;;;;;;;4.33;1.70;;;24.60;48.50;;;;;;4936021;29;20483;-48
2021/07/31 10:55:37;;;;;;;2.60;1.90;;;24.50;49.10;;;;;;4933649;29;20470;-48
2021/07/31 10:58:14;;;;;;;4.23;1.90;;;24.40;48.80;;;;;;4931004;29;20449;-48
2021/07/31 11:00:45;;;;;;;2.50;1.60;;;24.30;49.00;;;;;;4916994;29;20494;-48
2021/07/31 11:03:14;;;;;;;5.10;1.97;;;24.30;49.30;;;;;;4930569;29;20576;-48
2021/07/31 11:05:58;;;;;;;2.87;2.00;;;24.20;49.30;;;;;;4931798;29;20459;-48
2021/07/31 11:08:26;;;;;;;2.30;1.90;;;24.20;49.80;;;;;;4933653;29;20454;-48
2021/07/31 11:11:22;;;;;;;2.20;2.00;;;24.20;49.20;;;;;;4934952;29;20443;-48
2021/07/31 11:13:53;;;;;;;3.00;1.87;;;24.10;49.10;;;;;;4916551;29;20491;-48
2021/07/31 11:16:22;;;;;;;3.30;2.00;;;24.00;49.40;;;;;;4929979;29;20452;-48
2021/07/31 11:18:51;;;;;;;2.00;1.80;;;23.90;49.70;;;;;;4918715;29;21009;-48
2021/07/31 11:21:21;;;;;;;2.00;1.90;;;23.90;50.70;;;;;;4933620;29;20988;-48
2021/07/31 11:23:52;;;;;;;3.23;2.10;;;23.90;49.40;;;;;;4934547;29;20467;-48
2021/07/31 11:26:38;;;;;;;2.20;1.97;;;23.90;50.10;;;;;;4936059;29;20796;-48
2021/07/31 11:29:16;;;;;;;2.70;2.00;;;24.00;49.40;;;;;;4935494;29;20786;-48
2021/07/31 11:31:57;;;;;;;1.77;1.67;;;24.10;49.30;;;;;;4931317;29;20474;-48
2021/07/31 11:34:24;;;;;;;2.93;1.70;;;24.20;48.80;;;;;;4932062;29;20495;-48
2021/07/31 11:36:56;;;;;;;3.70;1.90;;;24.30;49.40;;;;;;4914207;29;20448;-48
2021/07/31 11:39:24;;;;;;;3.83;1.90;;;24.30;48.70;;;;;;4905865;29;20547;-48
2021/07/31 11:41:51;;;;;;;1.93;1.83;;;24.20;49.40;;;;;;4932648;29;20454;-48
2021/07/31 11:44:31;;;;;;;3.93;1.90;;;24.20;49.90;;;;;;4914159;29;20486;-47
2021/07/31 11:46:58;;;;;;;2.63;2.37;;;24.20;49.70;;;;;;4917901;29;20515;-48
2021/07/31 11:49:27;;;;;;;7.83;2.23;;;24.10;49.20;;;;;;4932306;29;20499;-47
2021/07/31 11:52:02;;;;;;;2.57;1.87;;;24.10;48.80;;;;;;4936245;29;20475;-47
2021/07/31 11:54:30;;;;;;;1.73;1.30;;;24.00;49.40;;;;;;4931800;29;20486;-47
2021/07/31 11:56:58;;;;;;;2.50;2.30;;;24.00;49.40;;;;;;4917839;29;21039;-47
2021/07/31 11:59:26;;;;;;;2.20;2.00;;;24.00;49.70;;;;;;4930187;29;20447;-48
2021/07/31 12:01:56;;;;;;;4.33;2.00;;;24.00;49.20;;;;;;4933110;29;20786;-47
2021/07/31 12:04:42;;;;;;;6.30;2.03;;;24.10;49.20;;;;;;4916908;29;20454;-48
2021/07/31 12:07:17;;;;;;;2.33;2.13;;;24.10;48.60;;;;;;4932419;29;21219;-47
2021/07/31 12:10:11;;;;;;;2.00;1.77;;;24.00;48.40;;;;;;4933628;29;20463;-47
2021/07/31 12:12:42;;;;;;;2.97;2.40;;;24.00;48.60;;;;;;4933908;29;20495;-47
2021/07/31 12:15:19;;;;;;;1.70;1.60;;;24.00;49.50;;;;;;4931837;29;20530;-47
2021/07/31 12:18:06;;;;;;;2.23;1.70;;;24.00;48.80;;;;;;4930244;29;20448;-48
2021/07/31 12:20:36;;;;;;;2.63;1.37;;;24.00;48.30;;;;;;4931566;29;20448;-46
2021/07/31 12:23:06;;;;;;;1.50;1.40;;;23.90;48.30;;;;;;4934937;29;21033;-46
2021/07/31 12:25:35;;;;;;;3.40;1.27;;;23.90;48.60;;;;;;4935325;29;20519;-47
2021/07/31 12:28:10;;;;;;;2.73;1.80;;;24.00;48.40;;;;;;4932675;29;20503;-49
2021/07/31 12:30:40;;;;;;;1.50;1.40;;;24.00;49.10;;;;;;4915712;29;20574;-47
2021/07/31 12:33:07;;;;;;;2.23;1.90;;;24.10;48.40;;;;;;4933404;29;20504;-47
2021/07/31 12:35:38;;;;;;;2.13;1.93;;;24.20;48.60;;;;;;4934861;29;20872;-47
2021/07/31 12:38:19;;;;;;;1.80;1.70;;;24.20;48.00;;;;;;4932376;29;20548;-46
2021/07/31 12:40:52;;;;;;;3.23;1.47;;;24.20;48.00;;;;;;4914450;29;20594;-46
2021/07/31 12:43:20;;;;;;;2.20;1.77;;;24.20;48.20;;;;;;4932916;29;20523;-47
2021/07/31 12:45:47;;;;;;;3.30;1.70;;;24.20;48.20;;;;;;4933795;29;20908;-47
2021/07/31 12:48:15;;;;;;;1.70;1.57;;;24.10;47.20;;;;;;4934286;29;20453;-47
2021/07/31 12:50:43;;;;;;;3.43;1.43;;;24.10;47.40;;;;;;4932048;29;20522;-46
2021/07/31 12:53:11;;;;;;;1.97;1.43;;;24.00;47.90;;;;;;4932164;29;20495;-46